sensor_id;sensor_type;location;lat;lon;timestamp;temperature;humidity
12967;DHT22;6548;49.996;8.238;2023-08-17T00:01:26;19.60;99.90
12967;DHT22;6548;49.996;8.238;2023-08-17T00:03:52;19.60;99.90
12967;DHT22;6548;49.996;8.238;2023-08-17T00:06:17;19.60;99.90
12967;DHT22;6548;49.996;8.238;2023-08-17T00:08:43;19.70;99.90
12967;DHT22;6548;49.996;8.238;2023-08-17T00:11:09;19.60;99.90
12967;DHT22;6548;49.996;8.238;2023-08-17T00:13:35;19.60;99.90
12967;DHT22;6548;49.996;8.238;2023-08-17T00:16:00;19.60;99.90
12967;DHT22;6548;49.996;8.238;2023-08-17T00:18:27;19.50;99.90
12967;DHT22;6548;49.996;8.238;2023-08-17T00:20:52;19.60;99.90
12967;DHT22;6548;49.996;8.238;2023-08-17T00:23:18;19.60;99.90
12967;DHT22;6548;49.996;8.238;2023-08-17T00:25:45;19.70;99.90
12967;DHT22;6548;49.996;8.238;2023-08-17T00:28:13;19.70;99.90
12967;DHT22;6548;49.996;8.238;2023-08-17T00:30:38;19.70;99.90
12967;DHT22;6548;49.996;8.238;2023-08-17T00:33:05;19.60;99.90
12967;DHT22;6548;49.996;8.238;2023-08-17T00:35:31;19.60;99.90
12967;DHT22;6548;49.996;8.238;2023-08-17T00:37:58;19.70;99.90
12967;DHT22;6548;49.996;8.238;2023-08-17T00:40:23;19.70;99.90
12967;DHT22;6548;49.996;8.238;2023-08-17T00:42:49;19.60;99.90
12967;DHT22;6548;49.996;8.238;2023-08-17T00:45:15;19.60;99.90
12967;DHT22;6548;49.996;8.238;2023-08-17T00:47:41;19.70;99.90
12967;DHT22;6548;49.996;8.238;2023-08-17T00:50:07;19.70;99.90
12967;DHT22;6548;49.996;8.238;2023-08-17T00:52:33;19.70;99.90
12967;DHT22;6548;49.996;8.238;2023-08-17T00:55:00;19.70;99.90
12967;DHT22;6548;49.996;8.238;2023-08-17T00:57:29;19.70;99.90
12967;DHT22;6548;49.996;8.238;2023-08-17T00:59:55;19.70;99.90
12967;DHT22;6548;49.996;8.238;2023-08-17T01:02:21;19.70;99.90
12967;DHT22;6548;49.996;8.238;2023-08-17T01:04:47;19.70;99.90
12967;DHT22;6548;49.996;8.238;2023-08-17T01:07:12;19.70;99.90
12967;DHT22;6548;49.996;8.238;2023-08-17T01:09:38;19.70;99.90
12967;DHT22;6548;49.996;8.238;2023-08-17T01:12:30;19.70;99.90
12967;DHT22;6548;49.996;8.238;2023-08-17T01:15:14;19.70;99.90
12967;DHT22;6548;49.996;8.238;2023-08-17T01:17:52;19.70;99.90
12967;DHT22;6548;49.996;8.238;2023-08-17T01:20:19;19.70;99.90
12967;DHT22;6548;49.996;8.238;2023-08-17T01:22:48;19.70;99.90
12967;DHT22;6548;49.996;8.238;2023-08-17T01:25:15;19.60;99.90
12967;DHT22;6548;49.996;8.238;2023-08-17T01:27:43;19.60;99.90
12967;DHT22;6548;49.996;8.238;2023-08-17T01:30:10;19.50;99.90
12967;DHT22;6548;49.996;8.238;2023-08-17T01:32:48;19.50;99.90
12967;DHT22;6548;49.996;8.238;2023-08-17T01:35:34;19.50;99.90
12967;DHT22;6548;49.996;8.238;2023-08-17T01:38:06;19.50;99.90
12967;DHT22;6548;49.996;8.238;2023-08-17T01:40:33;19.50;99.90
12967;DHT22;6548;49.996;8.238;2023-08-17T01:43:00;19.40;99.90
12967;DHT22;6548;49.996;8.238;2023-08-17T01:45:26;19.50;99.90
12967;DHT22;6548;49.996;8.238;2023-08-17T01:47:52;19.40;99.90
12967;DHT22;6548;49.996;8.238;2023-08-17T01:50:18;19.40;99.90
12967;DHT22;6548;49.996;8.238;2023-08-17T01:52:43;19.40;99.90
12967;DHT22;6548;49.996;8.238;2023-08-17T01:55:09;19.40;99.90
12967;DHT22;6548;49.996;8.238;2023-08-17T01:57:34;19.50;99.90
12967;DHT22;6548;49.996;8.238;2023-08-17T02:00:03;19.40;99.90
12967;DHT22;6548;49.996;8.238;2023-08-17T02:02:30;19.50;99.90
12967;DHT22;6548;49.996;8.238;2023-08-17T02:04:55;19.50;99.90
12967;DHT22;6548;49.996;8.238;2023-08-17T02:07:21;19.50;99.90
12967;DHT22;6548;49.996;8.238;2023-08-17T02:09:46;19.50;99.90
12967;DHT22;6548;49.996;8.238;2023-08-17T02:12:12;19.50;99.90
12967;DHT22;6548;49.996;8.238;2023-08-17T02:14:38;19.50;99.90
12967;DHT22;6548;49.996;8.238;2023-08-17T02:17:03;19.60;99.90
12967;DHT22;6548;49.996;8.238;2023-08-17T02:19:31;19.50;99.90
12967;DHT22;6548;49.996;8.238;2023-08-17T02:21:56;19.50;99.90
12967;DHT22;6548;49.996;8.238;2023-08-17T02:24:22;19.60;99.90
12967;DHT22;6548;49.996;8.238;2023-08-17T02:26:47;19.60;99.90
12967;DHT22;6548;49.996;8.238;2023-08-17T02:29:13;19.50;99.90
12967;DHT22;6548;49.996;8.238;2023-08-17T02:31:39;19.60;99.90
12967;DHT22;6548;49.996;8.238;2023-08-17T02:34:04;19.60;99.90
12967;DHT22;6548;49.996;8.238;2023-08-17T02:36:31;19.60;99.90
12967;DHT22;6548;49.996;8.238;2023-08-17T02:38:56;19.50;99.90
12967;DHT22;6548;49.996;8.238;2023-08-17T02:41:22;19.60;99.90
12967;DHT22;6548;49.996;8.238;2023-08-17T02:43:48;19.50;99.90
12967;DHT22;6548;49.996;8.238;2023-08-17T02:46:13;19.50;99.90
12967;DHT22;6548;49.996;8.238;2023-08-17T02:48:39;19.40;99.90
12967;DHT22;6548;49.996;8.238;2023-08-17T02:51:05;19.30;99.90
12967;DHT22;6548;49.996;8.238;2023-08-17T02:53:30;19.30;99.90
12967;DHT22;6548;49.996;8.238;2023-08-17T02:55:56;19.30;99.90
12967;DHT22;6548;49.996;8.238;2023-08-17T02:58:21;19.20;99.90
12967;DHT22;6548;49.996;8.238;2023-08-17T03:00:47;19.10;99.90
12967;DHT22;6548;49.996;8.238;2023-08-17T03:03:13;19.00;99.90
12967;DHT22;6548;49.996;8.238;2023-08-17T03:05:38;19.00;99.90
12967;DHT22;6548;49.996;8.238;2023-08-17T03:08:04;19.00;99.90
12967;DHT22;6548;49.996;8.238;2023-08-17T03:10:30;18.90;99.90
12967;DHT22;6548;49.996;8.238;2023-08-17T03:12:57;18.90;99.90
12967;DHT22;6548;49.996;8.238;2023-08-17T03:15:22;18.80;99.90
12967;DHT22;6548;49.996;8.238;2023-08-17T03:17:48;18.80;99.90
12967;DHT22;6548;49.996;8.238;2023-08-17T03:20:13;18.80;99.90
12967;DHT22;6548;49.996;8.238;2023-08-17T03:22:39;18.80;99.90
12967;DHT22;6548;49.996;8.238;2023-08-17T03:25:05;18.80;99.90
12967;DHT22;6548;49.996;8.238;2023-08-17T03:27:31;18.70;99.90
12967;DHT22;6548;49.996;8.238;2023-08-17T03:29:56;18.70;99.90
12967;DHT22;6548;49.996;8.238;2023-08-17T03:32:22;18.70;99.90
12967;DHT22;6548;49.996;8.238;2023-08-17T03:34:48;18.60;99.90
12967;DHT22;6548;49.996;8.238;2023-08-17T03:37:13;18.60;99.90
12967;DHT22;6548;49.996;8.238;2023-08-17T03:39:39;18.70;99.90
12967;DHT22;6548;49.996;8.238;2023-08-17T03:42:04;18.70;99.90
12967;DHT22;6548;49.996;8.238;2023-08-17T03:44:30;18.60;99.90
12967;DHT22;6548;49.996;8.238;2023-08-17T03:47:18;18.50;99.90
12967;DHT22;6548;49.996;8.238;2023-08-17T03:49:44;18.60;99.90
12967;DHT22;6548;49.996;8.238;2023-08-17T03:52:10;18.60;99.90
12967;DHT22;6548;49.996;8.238;2023-08-17T03:58:11;18.50;99.90
12967;DHT22;6548;49.996;8.238;2023-08-17T05:15:42;18.70;99.90
12967;DHT22;6548;49.996;8.238;2023-08-17T05:18:08;18.60;99.90
12967;DHT22;6548;49.996;8.238;2023-08-17T05:20:33;18.70;99.90
12967;DHT22;6548;49.996;8.238;2023-08-17T05:22:59;18.70;99.90
12967;DHT22;6548;49.996;8.238;2023-08-17T05:25:24;18.80;99.90
12967;DHT22;6548;49.996;8.238;2023-08-17T05:27:51;18.80;99.90
12967;DHT22;6548;49.996;8.238;2023-08-17T05:30:17;18.90;99.90
12967;DHT22;6548;49.996;8.238;2023-08-17T05:32:43;18.90;99.90
12967;DHT22;6548;49.996;8.238;2023-08-17T05:35:08;18.90;99.90
12967;DHT22;6548;49.996;8.238;2023-08-17T05:37:34;18.90;99.90
12967;DHT22;6548;49.996;8.238;2023-08-17T05:40:00;19.00;99.90
12967;DHT22;6548;49.996;8.238;2023-08-17T05:42:25;19.00;99.90
12967;DHT22;6548;49.996;8.238;2023-08-17T05:44:51;19.10;99.90
12967;DHT22;6548;49.996;8.238;2023-08-17T05:47:16;19.10;99.90
12967;DHT22;6548;49.996;8.238;2023-08-17T05:49:44;19.10;99.90
12967;DHT22;6548;49.996;8.238;2023-08-17T05:52:10;19.10;99.90
12967;DHT22;6548;49.996;8.238;2023-08-17T05:54:35;19.10;99.90
12967;DHT22;6548;49.996;8.238;2023-08-17T05:57:01;19.10;99.90
12967;DHT22;6548;49.996;8.238;2023-08-17T05:59:27;19.20;99.90
12967;DHT22;6548;49.996;8.238;2023-08-17T06:01:53;19.20;99.90
12967;DHT22;6548;49.996;8.238;2023-08-17T06:04:18;19.20;99.90
12967;DHT22;6548;49.996;8.238;2023-08-17T06:06:45;19.30;99.90
12967;DHT22;6548;49.996;8.238;2023-08-17T06:09:10;19.30;99.90
12967;DHT22;6548;49.996;8.238;2023-08-17T06:11:36;19.40;99.90
12967;DHT22;6548;49.996;8.238;2023-08-17T06:14:01;19.50;99.90
12967;DHT22;6548;49.996;8.238;2023-08-17T06:16:27;19.50;99.90
12967;DHT22;6548;49.996;8.238;2023-08-17T06:18:52;19.50;99.90
12967;DHT22;6548;49.996;8.238;2023-08-17T06:21:18;19.70;99.90
12967;DHT22;6548;49.996;8.238;2023-08-17T06:23:44;19.80;99.90
12967;DHT22;6548;49.996;8.238;2023-08-17T06:26:09;19.90;99.90
12967;DHT22;6548;49.996;8.238;2023-08-17T06:28:35;20.00;99.90
12967;DHT22;6548;49.996;8.238;2023-08-17T06:31:00;20.20;99.90
12967;DHT22;6548;49.996;8.238;2023-08-17T06:33:26;20.20;99.90
12967;DHT22;6548;49.996;8.238;2023-08-17T06:35:52;20.30;99.90
12967;DHT22;6548;49.996;8.238;2023-08-17T06:38:17;20.30;99.90
12967;DHT22;6548;49.996;8.238;2023-08-17T06:40:43;20.60;99.90
12967;DHT22;6548;49.996;8.238;2023-08-17T06:43:09;20.60;99.90
12967;DHT22;6548;49.996;8.238;2023-08-17T06:45:35;20.60;99.90
12967;DHT22;6548;49.996;8.238;2023-08-17T06:48:00;20.70;99.90
12967;DHT22;6548;49.996;8.238;2023-08-17T06:50:26;20.80;99.90
12967;DHT22;6548;49.996;8.238;2023-08-17T06:52:53;21.00;99.90
12967;DHT22;6548;49.996;8.238;2023-08-17T06:55:19;20.90;99.90
12967;DHT22;6548;49.996;8.238;2023-08-17T06:57:45;20.90;99.90
12967;DHT22;6548;49.996;8.238;2023-08-17T07:00:11;21.10;99.90
12967;DHT22;6548;49.996;8.238;2023-08-17T07:02:37;20.90;99.90
12967;DHT22;6548;49.996;8.238;2023-08-17T07:05:03;20.80;99.90
12967;DHT22;6548;49.996;8.238;2023-08-17T07:07:29;20.80;99.90
12967;DHT22;6548;49.996;8.238;2023-08-17T07:09:59;20.80;99.90
12967;DHT22;6548;49.996;8.238;2023-08-17T07:12:25;21.00;99.90
12967;DHT22;6548;49.996;8.238;2023-08-17T07:14:51;21.10;99.90
12967;DHT22;6548;49.996;8.238;2023-08-17T07:17:16;21.30;99.90
12967;DHT22;6548;49.996;8.238;2023-08-17T07:19:42;21.70;99.90
12967;DHT22;6548;49.996;8.238;2023-08-17T07:22:07;21.80;99.90
12967;DHT22;6548;49.996;8.238;2023-08-17T07:24:33;21.90;99.90
12967;DHT22;6548;49.996;8.238;2023-08-17T07:26:58;22.00;99.90
12967;DHT22;6548;49.996;8.238;2023-08-17T07:29:24;22.30;99.90
12967;DHT22;6548;49.996;8.238;2023-08-17T07:31:49;22.50;99.90
12967;DHT22;6548;49.996;8.238;2023-08-17T07:34:15;22.50;99.90
12967;DHT22;6548;49.996;8.238;2023-08-17T07:36:41;22.40;99.90
12967;DHT22;6548;49.996;8.238;2023-08-17T07:39:06;22.30;99.90
12967;DHT22;6548;49.996;8.238;2023-08-17T07:41:32;22.10;99.90
12967;DHT22;6548;49.996;8.238;2023-08-17T07:43:58;21.90;99.90
12967;DHT22;6548;49.996;8.238;2023-08-17T07:46:23;21.80;99.90
12967;DHT22;6548;49.996;8.238;2023-08-17T07:48:49;21.70;99.90
12967;DHT22;6548;49.996;8.238;2023-08-17T07:51:14;21.80;99.90
12967;DHT22;6548;49.996;8.238;2023-08-17T07:53:40;21.90;99.90
12967;DHT22;6548;49.996;8.238;2023-08-17T07:56:06;22.10;99.90
12967;DHT22;6548;49.996;8.238;2023-08-17T07:58:31;22.00;99.90
12967;DHT22;6548;49.996;8.238;2023-08-17T08:00:57;22.00;99.90
12967;DHT22;6548;49.996;8.238;2023-08-17T08:03:22;22.00;99.90
12967;DHT22;6548;49.996;8.238;2023-08-17T08:05:48;22.00;99.90
12967;DHT22;6548;49.996;8.238;2023-08-17T08:08:13;22.20;99.90
12967;DHT22;6548;49.996;8.238;2023-08-17T08:10:40;22.30;99.90
12967;DHT22;6548;49.996;8.238;2023-08-17T08:13:06;22.50;99.90
12967;DHT22;6548;49.996;8.238;2023-08-17T08:15:33;22.60;99.90
12967;DHT22;6548;49.996;8.238;2023-08-17T08:17:58;22.80;99.90
12967;DHT22;6548;49.996;8.238;2023-08-17T08:20:24;23.00;99.90
12967;DHT22;6548;49.996;8.238;2023-08-17T08:22:49;23.30;99.90
12967;DHT22;6548;49.996;8.238;2023-08-17T08:25:15;23.90;99.90
12967;DHT22;6548;49.996;8.238;2023-08-17T08:27:41;24.10;99.90
12967;DHT22;6548;49.996;8.238;2023-08-17T08:30:07;24.40;99.90
12967;DHT22;6548;49.996;8.238;2023-08-17T08:32:32;24.90;99.90
12967;DHT22;6548;49.996;8.238;2023-08-17T08:34:58;24.70;99.90
12967;DHT22;6548;49.996;8.238;2023-08-17T08:37:24;25.50;99.90
12967;DHT22;6548;49.996;8.238;2023-08-17T08:39:50;26.40;99.90
12967;DHT22;6548;49.996;8.238;2023-08-17T08:42:18;26.80;99.90
12967;DHT22;6548;49.996;8.238;2023-08-17T08:44:44;26.60;99.90
12967;DHT22;6548;49.996;8.238;2023-08-17T08:47:10;26.20;99.90
12967;DHT22;6548;49.996;8.238;2023-08-17T08:49:40;25.80;99.90
12967;DHT22;6548;49.996;8.238;2023-08-17T08:52:08;25.60;99.90
12967;DHT22;6548;49.996;8.238;2023-08-17T08:54:38;25.40;99.90
12967;DHT22;6548;49.996;8.238;2023-08-17T08:57:08;26.00;99.90
12967;DHT22;6548;49.996;8.238;2023-08-17T08:59:34;26.50;99.90
12967;DHT22;6548;49.996;8.238;2023-08-17T09:02:00;26.20;99.90
12967;DHT22;6548;49.996;8.238;2023-08-17T09:04:27;25.50;99.90
12967;DHT22;6548;49.996;8.238;2023-08-17T09:06:53;25.70;99.90
12967;DHT22;6548;49.996;8.238;2023-08-17T09:09:19;26.00;99.90
12967;DHT22;6548;49.996;8.238;2023-08-17T09:11:46;26.60;99.90
12967;DHT22;6548;49.996;8.238;2023-08-17T09:14:11;26.90;99.90
12967;DHT22;6548;49.996;8.238;2023-08-17T09:16:37;26.80;99.90
12967;DHT22;6548;49.996;8.238;2023-08-17T09:19:03;27.30;99.90
12967;DHT22;6548;49.996;8.238;2023-08-17T09:21:32;27.00;99.90
12967;DHT22;6548;49.996;8.238;2023-08-17T09:23:57;26.10;99.90
12967;DHT22;6548;49.996;8.238;2023-08-17T09:26:23;26.00;99.90
12967;DHT22;6548;49.996;8.238;2023-08-17T09:28:50;26.20;99.90
12967;DHT22;6548;49.996;8.238;2023-08-17T09:31:15;26.10;99.90
12967;DHT22;6548;49.996;8.238;2023-08-17T09:33:41;27.20;99.90
12967;DHT22;6548;49.996;8.238;2023-08-17T09:36:06;27.90;99.90
12967;DHT22;6548;49.996;8.238;2023-08-17T09:38:34;28.00;99.90
12967;DHT22;6548;49.996;8.238;2023-08-17T09:41:03;28.30;99.90
12967;DHT22;6548;49.996;8.238;2023-08-17T09:43:29;28.10;99.90
12967;DHT22;6548;49.996;8.238;2023-08-17T09:45:58;27.80;99.90
12967;DHT22;6548;49.996;8.238;2023-08-17T09:48:25;27.20;99.90
12967;DHT22;6548;49.996;8.238;2023-08-17T09:50:51;26.90;99.90
12967;DHT22;6548;49.996;8.238;2023-08-17T09:53:18;27.80;99.90
12967;DHT22;6548;49.996;8.238;2023-08-17T09:55:46;27.80;99.90
12967;DHT22;6548;49.996;8.238;2023-08-17T09:58:12;27.80;99.90
12967;DHT22;6548;49.996;8.238;2023-08-17T10:00:46;27.60;99.90
12967;DHT22;6548;49.996;8.238;2023-08-17T10:03:13;27.80;99.90
12967;DHT22;6548;49.996;8.238;2023-08-17T10:05:42;27.70;99.90
12967;DHT22;6548;49.996;8.238;2023-08-17T10:08:07;28.40;99.90
12967;DHT22;6548;49.996;8.238;2023-08-17T10:10:40;28.90;99.90
12967;DHT22;6548;49.996;8.238;2023-08-17T10:13:12;28.70;99.90
12967;DHT22;6548;49.996;8.238;2023-08-17T10:16:23;28.80;99.90
12967;DHT22;6548;49.996;8.238;2023-08-17T10:19:05;29.50;99.90
12967;DHT22;6548;49.996;8.238;2023-08-17T10:21:54;29.50;99.90
12967;DHT22;6548;49.996;8.238;2023-08-17T10:24:23;29.90;99.90
12967;DHT22;6548;49.996;8.238;2023-08-17T10:26:49;30.00;99.90
12967;DHT22;6548;49.996;8.238;2023-08-17T10:29:15;30.10;99.90
12967;DHT22;6548;49.996;8.238;2023-08-17T10:31:43;30.20;99.90
12967;DHT22;6548;49.996;8.238;2023-08-17T10:34:10;29.20;99.90
12967;DHT22;6548;49.996;8.238;2023-08-17T10:36:36;29.10;99.90
12967;DHT22;6548;49.996;8.238;2023-08-17T10:39:24;29.40;99.90
12967;DHT22;6548;49.996;8.238;2023-08-17T10:41:51;29.90;99.90
12967;DHT22;6548;49.996;8.238;2023-08-17T10:44:18;29.80;99.90
12967;DHT22;6548;49.996;8.238;2023-08-17T10:47:24;29.30;99.90
12967;DHT22;6548;49.996;8.238;2023-08-17T10:49:51;28.20;99.90
12967;DHT22;6548;49.996;8.238;2023-08-17T10:52:25;28.10;99.90
12967;DHT22;6548;49.996;8.238;2023-08-17T10:54:51;28.10;99.90
12967;DHT22;6548;49.996;8.238;2023-08-17T11:00:15;27.50;99.90
12967;DHT22;6548;49.996;8.238;2023-08-17T11:02:46;28.10;99.90
12967;DHT22;6548;49.996;8.238;2023-08-17T11:08:06;27.60;99.90
12967;DHT22;6548;49.996;8.238;2023-08-17T11:10:32;27.40;99.90
12967;DHT22;6548;49.996;8.238;2023-08-17T11:12:59;28.00;99.90
12967;DHT22;6548;49.996;8.238;2023-08-17T11:15:45;28.30;99.90
12967;DHT22;6548;49.996;8.238;2023-08-17T11:18:13;27.90;99.90
12967;DHT22;6548;49.996;8.238;2023-08-17T11:20:40;28.00;99.90
12967;DHT22;6548;49.996;8.238;2023-08-17T11:23:07;28.10;99.90
12967;DHT22;6548;49.996;8.238;2023-08-17T11:25:33;28.90;99.90
12967;DHT22;6548;49.996;8.238;2023-08-17T11:28:00;29.50;99.90
12967;DHT22;6548;49.996;8.238;2023-08-17T11:30:27;29.50;99.90
12967;DHT22;6548;49.996;8.238;2023-08-17T11:32:53;29.80;99.90
12967;DHT22;6548;49.996;8.238;2023-08-17T11:35:19;29.90;99.90
12967;DHT22;6548;49.996;8.238;2023-08-17T11:37:46;29.90;99.90
12967;DHT22;6548;49.996;8.238;2023-08-17T11:40:12;29.50;99.90
12967;DHT22;6548;49.996;8.238;2023-08-17T11:42:38;29.40;99.90
12967;DHT22;6548;49.996;8.238;2023-08-17T11:45:06;29.60;99.90
12967;DHT22;6548;49.996;8.238;2023-08-17T11:47:37;29.20;99.90
12967;DHT22;6548;49.996;8.238;2023-08-17T11:50:04;29.30;99.90
12967;DHT22;6548;49.996;8.238;2023-08-17T11:52:33;29.10;99.90
12967;DHT22;6548;49.996;8.238;2023-08-17T11:54:59;28.90;99.90
12967;DHT22;6548;49.996;8.238;2023-08-17T11:57:25;28.80;99.90
12967;DHT22;6548;49.996;8.238;2023-08-17T11:59:55;28.60;99.90
12967;DHT22;6548;49.996;8.238;2023-08-17T12:02:24;28.70;99.90
12967;DHT22;6548;49.996;8.238;2023-08-17T12:04:51;28.70;99.90
12967;DHT22;6548;49.996;8.238;2023-08-17T12:07:18;28.50;99.90
12967;DHT22;6548;49.996;8.238;2023-08-17T12:09:45;28.50;99.90
12967;DHT22;6548;49.996;8.238;2023-08-17T12:12:11;28.20;99.90
12967;DHT22;6548;49.996;8.238;2023-08-17T12:14:40;28.10;99.90
12967;DHT22;6548;49.996;8.238;2023-08-17T12:17:06;28.00;99.90
12967;DHT22;6548;49.996;8.238;2023-08-17T12:19:31;27.70;99.90
12967;DHT22;6548;49.996;8.238;2023-08-17T12:21:57;27.50;99.90
12967;DHT22;6548;49.996;8.238;2023-08-17T12:24:26;27.80;99.90
12967;DHT22;6548;49.996;8.238;2023-08-17T12:26:52;28.00;99.90
12967;DHT22;6548;49.996;8.238;2023-08-17T12:29:21;28.00;99.90
12967;DHT22;6548;49.996;8.238;2023-08-17T12:31:48;27.90;99.90
12967;DHT22;6548;49.996;8.238;2023-08-17T12:34:14;27.70;99.90
12967;DHT22;6548;49.996;8.238;2023-08-17T12:36:43;27.30;99.90
12967;DHT22;6548;49.996;8.238;2023-08-17T12:39:08;27.30;99.90
12967;DHT22;6548;49.996;8.238;2023-08-17T12:41:34;27.40;99.90
12967;DHT22;6548;49.996;8.238;2023-08-17T12:43:59;27.40;99.90
12967;DHT22;6548;49.996;8.238;2023-08-17T12:46:26;27.60;99.90
12967;DHT22;6548;49.996;8.238;2023-08-17T12:48:52;27.60;99.90
12967;DHT22;6548;49.996;8.238;2023-08-17T12:51:17;27.50;99.90
12967;DHT22;6548;49.996;8.238;2023-08-17T12:53:43;27.10;99.90
12967;DHT22;6548;49.996;8.238;2023-08-17T12:56:08;26.90;99.90
12967;DHT22;6548;49.996;8.238;2023-08-17T12:58:34;26.80;99.90
12967;DHT22;6548;49.996;8.238;2023-08-17T13:01:00;26.50;99.90
12967;DHT22;6548;49.996;8.238;2023-08-17T13:03:25;26.60;99.90
12967;DHT22;6548;49.996;8.238;2023-08-17T13:05:51;26.40;99.90
12967;DHT22;6548;49.996;8.238;2023-08-17T13:08:16;26.40;99.90
12967;DHT22;6548;49.996;8.238;2023-08-17T13:10:42;26.40;99.90
12967;DHT22;6548;49.996;8.238;2023-08-17T13:13:08;26.40;99.90
12967;DHT22;6548;49.996;8.238;2023-08-17T13:15:33;26.30;99.90
12967;DHT22;6548;49.996;8.238;2023-08-17T13:17:59;26.30;99.90
12967;DHT22;6548;49.996;8.238;2023-08-17T13:20:25;26.30;99.90
12967;DHT22;6548;49.996;8.238;2023-08-17T13:22:51;26.30;99.90
12967;DHT22;6548;49.996;8.238;2023-08-17T13:25:16;26.30;99.90
12967;DHT22;6548;49.996;8.238;2023-08-17T13:27:42;26.40;99.90
12967;DHT22;6548;49.996;8.238;2023-08-17T13:30:08;26.50;99.90
12967;DHT22;6548;49.996;8.238;2023-08-17T13:32:34;26.60;99.90
12967;DHT22;6548;49.996;8.238;2023-08-17T13:35:02;26.90;99.90
12967;DHT22;6548;49.996;8.238;2023-08-17T13:37:27;27.10;99.90
12967;DHT22;6548;49.996;8.238;2023-08-17T13:39:53;27.40;99.90
12967;DHT22;6548;49.996;8.238;2023-08-17T13:42:19;27.60;99.90
12967;DHT22;6548;49.996;8.238;2023-08-17T13:44:45;28.00;99.90
12967;DHT22;6548;49.996;8.238;2023-08-17T13:47:11;27.80;99.90
12967;DHT22;6548;49.996;8.238;2023-08-17T13:49:36;28.00;99.90
12967;DHT22;6548;49.996;8.238;2023-08-17T13:52:02;28.10;99.90
12967;DHT22;6548;49.996;8.238;2023-08-17T13:54:28;28.10;99.90
12967;DHT22;6548;49.996;8.238;2023-08-17T13:56:53;28.20;99.90
12967;DHT22;6548;49.996;8.238;2023-08-17T13:59:19;28.20;99.90
12967;DHT22;6548;49.996;8.238;2023-08-17T14:01:44;28.10;99.90
12967;DHT22;6548;49.996;8.238;2023-08-17T14:04:10;28.00;99.90
12967;DHT22;6548;49.996;8.238;2023-08-17T14:06:39;28.00;99.90
12967;DHT22;6548;49.996;8.238;2023-08-17T14:09:06;28.10;99.90
12967;DHT22;6548;49.996;8.238;2023-08-17T14:11:31;28.20;99.90
12967;DHT22;6548;49.996;8.238;2023-08-17T14:13:57;28.00;99.90
12967;DHT22;6548;49.996;8.238;2023-08-17T14:16:22;28.10;99.90
12967;DHT22;6548;49.996;8.238;2023-08-17T14:18:48;28.00;99.90
12967;DHT22;6548;49.996;8.238;2023-08-17T14:21:13;27.80;99.90
12967;DHT22;6548;49.996;8.238;2023-08-17T14:23:39;27.70;99.90
12967;DHT22;6548;49.996;8.238;2023-08-17T14:26:05;27.60;99.90
12967;DHT22;6548;49.996;8.238;2023-08-17T14:28:31;27.50;99.90
12967;DHT22;6548;49.996;8.238;2023-08-17T14:30:56;27.50;99.90
12967;DHT22;6548;49.996;8.238;2023-08-17T14:33:22;27.40;99.90
12967;DHT22;6548;49.996;8.238;2023-08-17T14:35:48;27.20;99.90
12967;DHT22;6548;49.996;8.238;2023-08-17T14:38:13;27.10;99.90
12967;DHT22;6548;49.996;8.238;2023-08-17T14:40:47;27.00;99.90
12967;DHT22;6548;49.996;8.238;2023-08-17T14:43:12;26.90;99.90
12967;DHT22;6548;49.996;8.238;2023-08-17T14:45:42;27.00;99.90
12967;DHT22;6548;49.996;8.238;2023-08-17T14:48:08;26.90;99.90
12967;DHT22;6548;49.996;8.238;2023-08-17T14:50:37;27.00;99.90
12967;DHT22;6548;49.996;8.238;2023-08-17T14:53:04;27.10;99.90
12967;DHT22;6548;49.996;8.238;2023-08-17T14:55:32;27.30;99.90
12967;DHT22;6548;49.996;8.238;2023-08-17T14:57:59;27.50;99.90
12967;DHT22;6548;49.996;8.238;2023-08-17T15:00:25;27.50;99.90
12967;DHT22;6548;49.996;8.238;2023-08-17T15:02:53;27.50;99.90
12967;DHT22;6548;49.996;8.238;2023-08-17T15:05:18;27.60;99.90
12967;DHT22;6548;49.996;8.238;2023-08-17T15:07:44;27.80;99.90
12967;DHT22;6548;49.996;8.238;2023-08-17T15:10:10;27.90;99.90
12967;DHT22;6548;49.996;8.238;2023-08-17T15:12:35;28.00;99.90
12967;DHT22;6548;49.996;8.238;2023-08-17T15:15:01;28.10;99.90
12967;DHT22;6548;49.996;8.238;2023-08-17T15:17:27;28.30;99.90
12967;DHT22;6548;49.996;8.238;2023-08-17T15:19:52;28.30;99.90
12967;DHT22;6548;49.996;8.238;2023-08-17T15:22:18;28.50;99.90
12967;DHT22;6548;49.996;8.238;2023-08-17T15:24:44;28.70;99.90
12967;DHT22;6548;49.996;8.238;2023-08-17T15:27:09;28.80;99.90
12967;DHT22;6548;49.996;8.238;2023-08-17T15:29:35;29.10;99.90
12967;DHT22;6548;49.996;8.238;2023-08-17T15:32:00;29.30;99.90
12967;DHT22;6548;49.996;8.238;2023-08-17T15:34:26;29.40;99.90
12967;DHT22;6548;49.996;8.238;2023-08-17T15:36:51;29.50;99.90
12967;DHT22;6548;49.996;8.238;2023-08-17T15:39:17;29.60;99.90
12967;DHT22;6548;49.996;8.238;2023-08-17T15:41:43;29.50;99.90
12967;DHT22;6548;49.996;8.238;2023-08-17T15:44:08;29.60;99.90
12967;DHT22;6548;49.996;8.238;2023-08-17T15:46:34;29.70;99.90
12967;DHT22;6548;49.996;8.238;2023-08-17T15:48:59;29.60;99.90
12967;DHT22;6548;49.996;8.238;2023-08-17T15:51:25;29.20;99.90
12967;DHT22;6548;49.996;8.238;2023-08-17T15:53:53;29.00;99.90
12967;DHT22;6548;49.996;8.238;2023-08-17T15:56:19;29.00;99.90
12967;DHT22;6548;49.996;8.238;2023-08-17T15:58:44;28.90;99.90
12967;DHT22;6548;49.996;8.238;2023-08-17T16:01:10;28.70;99.90
12967;DHT22;6548;49.996;8.238;2023-08-17T16:03:36;28.60;99.90
12967;DHT22;6548;49.996;8.238;2023-08-17T16:06:03;28.40;99.90
12967;DHT22;6548;49.996;8.238;2023-08-17T16:08:28;28.40;99.90
12967;DHT22;6548;49.996;8.238;2023-08-17T16:10:54;28.30;99.90
12967;DHT22;6548;49.996;8.238;2023-08-17T16:13:19;28.20;99.90
12967;DHT22;6548;49.996;8.238;2023-08-17T16:15:45;28.10;99.90
12967;DHT22;6548;49.996;8.238;2023-08-17T16:18:10;28.10;99.90
12967;DHT22;6548;49.996;8.238;2023-08-17T16:20:36;28.00;99.90
12967;DHT22;6548;49.996;8.238;2023-08-17T16:23:01;28.00;99.90
12967;DHT22;6548;49.996;8.238;2023-08-17T16:25:27;27.90;99.90
12967;DHT22;6548;49.996;8.238;2023-08-17T16:27:53;27.80;99.90
12967;DHT22;6548;49.996;8.238;2023-08-17T16:30:19;27.70;99.90
12967;DHT22;6548;49.996;8.238;2023-08-17T16:32:44;27.60;99.90
12967;DHT22;6548;49.996;8.238;2023-08-17T16:35:10;27.50;99.90
12967;DHT22;6548;49.996;8.238;2023-08-17T16:37:36;27.30;99.90
12967;DHT22;6548;49.996;8.238;2023-08-17T16:40:02;27.20;99.90
12967;DHT22;6548;49.996;8.238;2023-08-17T16:42:30;27.10;99.90
12967;DHT22;6548;49.996;8.238;2023-08-17T16:44:56;27.00;99.90
12967;DHT22;6548;49.996;8.238;2023-08-17T16:47:21;26.90;99.90
12967;DHT22;6548;49.996;8.238;2023-08-17T16:49:51;26.80;99.90
12967;DHT22;6548;49.996;8.238;2023-08-17T16:52:17;26.80;99.90
12967;DHT22;6548;49.996;8.238;2023-08-17T16:54:42;26.80;99.90
12967;DHT22;6548;49.996;8.238;2023-08-17T16:57:08;26.80;99.90
12967;DHT22;6548;49.996;8.238;2023-08-17T16:59:33;26.80;99.90
12967;DHT22;6548;49.996;8.238;2023-08-17T17:01:59;26.80;99.90
12967;DHT22;6548;49.996;8.238;2023-08-17T17:04:24;26.90;99.90
12967;DHT22;6548;49.996;8.238;2023-08-17T17:06:50;27.00;99.90